Time;durP1;ratioP1;P1;durP2;ratioP2;P2;SDS_P1;SDS_P2;PMS_P1;PMS_P2;Temp;Humidity;BMP_temperature;BMP_pressure;BME280_temperature;BME280_humidity;BME280_pressure;Samples;Min_cycle;Max_cycle;Signal;HPM_P1;HPM_P2
2023/11/20 00:01:41;;;;;;;;;;;;;;;28.09;62.92;101110.19;5102888;27;66623;-34
2023/11/20 00:04:11;;;;;;;;;;;;;;;28.10;63.08;101111.03;5096088;27;70294;-35
2023/11/20 00:06:41;;;;;;;;;;;;;;;28.11;63.41;101107.28;5101412;27;65972;-33
2023/11/20 00:09:11;;;;;;;;;;;;;;;28.14;63.89;101120.38;5103134;27;70633;-33
2023/11/20 00:11:41;;;;;;;;;;;;;;;28.15;63.53;101122.06;5102336;27;66951;-34
2023/11/20 00:14:10;;;;;;;;;;;;;;;28.13;63.10;101126.81;5099152;27;70584;-33
2023/11/20 00:16:40;;;;;;;;;;;;;;;28.10;63.00;101127.22;5100137;27;66000;-34
2023/11/20 00:19:11;;;;;;;;;;;;;;;28.09;62.92;101128.25;5099251;27;70404;-34
2023/11/20 00:21:41;;;;;;;;;;;;;;;28.10;62.97;101138.00;5100910;27;65039;-33
2023/11/20 00:24:10;;;;;;;;;;;;;;;28.10;62.51;101132.59;5080685;27;71041;-34
2023/11/20 00:26:40;;;;;;;;;;;;;;;28.10;62.69;101132.59;5100318;27;66550;-35
2023/11/20 00:29:10;;;;;;;;;;;;;;;28.12;62.21;101135.94;5097079;27;71209;-34
2023/11/20 00:31:40;;;;;;;;;;;;;;;28.15;62.57;101146.34;5099789;27;66359;-34
2023/11/20 00:34:10;;;;;;;;;;;;;;;28.14;62.07;101152.75;5099298;27;69484;-34
2023/11/20 00:36:42;;;;;;;;;;;;;;;28.13;62.26;101154.63;5099544;27;66335;-33
2023/11/20 00:39:13;;;;;;;;;;;;;;;28.19;62.76;101147.59;5096442;27;70382;-35
2023/11/20 00:41:43;;;;;;;;;;;;;;;28.25;63.30;101153.06;5099758;27;66313;-34
2023/11/20 00:44:15;;;;;;;;;;;;;;;28.27;61.04;101155.56;5081313;27;70080;-32
2023/11/20 00:46:45;;;;;;;;;;;;;;;28.30;60.08;101155.16;5100622;27;67031;-33
2023/11/20 00:49:15;;;;;;;;;;;;;;;28.33;59.55;101157.47;5090822;27;69692;-33
2023/11/20 00:51:46;;;;;;;;;;;;;;;28.37;59.41;101157.94;5091923;27;65564;-34
2023/11/20 00:54:16;;;;;;;;;;;;;;;28.39;58.95;101170.19;5097954;27;70278;-33
2023/11/20 00:56:45;;;;;;;;;;;;;;;28.42;59.18;101175.22;5097912;27;65649;-34
2023/11/20 00:59:15;;;;;;;;;;;;;;;28.45;58.89;101180.22;5096721;27;69128;-33
2023/11/20 01:01:45;;;;;;;;;;;;;;;28.47;58.47;101180.88;5098540;27;66862;-33
2023/11/20 01:04:15;;;;;;;;;;;;;;;28.49;58.68;101188.75;5071740;27;69125;-32
2023/11/20 01:06:45;;;;;;;;;;;;;;;28.50;58.49;101188.56;5078413;27;66872;-33
2023/11/20 01:09:14;;;;;;;;;;;;;;;28.54;58.11;101193.56;5079596;27;68015;-33
2023/11/20 01:11:44;;;;;;;;;;;;;;;28.55;58.08;101184.44;5073578;27;66108;-33
2023/11/20 01:14:13;;;;;;;;;;;;;;;28.57;58.02;101188.59;5097238;27;70412;-33
2023/11/20 01:16:43;;;;;;;;;;;;;;;28.59;58.23;101188.41;5100956;27;67001;-33
2023/11/20 01:19:13;;;;;;;;;;;;;;;28.60;58.23;101196.28;5099842;27;70114;-33
2023/11/20 01:21:45;;;;;;;;;;;;;;;28.62;57.82;101196.13;5098472;27;66040;-33
2023/11/20 01:24:14;;;;;;;;;;;;;;;28.62;57.69;101196.94;5082968;27;70071;-33
2023/11/20 01:26:45;;;;;;;;;;;;;;;28.65;57.64;101198.41;5095523;27;65637;-33
2023/11/20 01:29:14;;;;;;;;;;;;;;;28.66;57.65;101195.50;5097901;27;69753;-33
2023/11/20 01:31:44;;;;;;;;;;;;;;;28.69;57.43;101194.28;5080111;27;65688;-34
2023/11/20 01:34:14;;;;;;;;;;;;;;;28.70;57.95;101193.25;5081955;27;70282;-34
2023/11/20 01:36:43;;;;;;;;;;;;;;;28.70;57.78;101199.50;5097673;27;65571;-33
2023/11/20 01:39:13;;;;;;;;;;;;;;;28.72;57.85;101192.03;5099646;27;70427;-33
2023/11/20 01:41:43;;;;;;;;;;;;;;;28.75;57.20;101196.19;5100202;27;65282;-33
2023/11/20 01:44:12;;;;;;;;;;;;;;;28.76;57.75;101195.16;5079773;27;70559;-32
2023/11/20 01:46:43;;;;;;;;;;;;;;;28.79;57.73;101196.63;5099928;27;66586;-33
2023/11/20 01:49:12;;;;;;;;;;;;;;;28.80;57.48;101188.31;5091979;27;70580;-33
2023/11/20 01:51:42;;;;;;;;;;;;;;;28.82;57.35;101185.44;5064192;27;66531;-34
2023/11/20 01:54:13;;;;;;;;;;;;;;;28.84;57.77;101186.06;5098483;27;70404;-33
2023/11/20 01:56:43;;;;;;;;;;;;;;;28.86;57.74;101190.25;5080293;27;65969;-34
2023/11/20 01:59:16;;;;;;;;;;;;;;;28.87;57.47;101189.19;5089608;27;70414;-33
2023/11/20 02:01:46;;;;;;;;;;;;;;;28.88;57.39;101193.56;5071094;27;66376;-34
2023/11/20 02:04:15;;;;;;;;;;;;;;;28.91;57.54;101200.44;5088015;27;69768;-34
2023/11/20 02:06:45;;;;;;;;;;;;;;;28.93;57.44;101204.59;5096886;27;67253;-34
2023/11/20 02:09:16;;;;;;;;;;;;;;;28.95;57.53;101209.81;5099727;27;70308;-33
2023/11/20 02:11:46;;;;;;;;;;;;;;;28.94;60.90;101206.25;5079357;27;66183;-33
2023/11/20 02:14:18;;;;;;;;;;;;;;;28.94;62.39;101203.56;5080328;27;70346;-35
2023/11/20 02:16:48;;;;;;;;;;;;;;;28.92;62.65;101197.53;5080788;27;67023;-34
2023/11/20 02:19:18;;;;;;;;;;;;;;;28.94;63.34;101200.03;5080542;27;70544;-34
2023/11/20 02:21:47;;;;;;;;;;;;;;;28.98;63.08;101200.47;5077656;27;66947;-34
2023/11/20 02:24:17;;;;;;;;;;;;;;;28.98;63.93;101205.88;5080022;27;69580;-34
2023/11/20 02:26:51;;;;;;;;;;;;;;;29.00;63.51;101206.50;5090961;27;66747;-37
2023/11/20 02:29:31;;;;;;;;;;;;;;;29.02;63.65;101196.34;5100399;27;70433;-35
2023/11/20 02:32:00;;;;;;;;;;;;;;;29.05;64.17;101187.88;5101020;27;67026;-35
2023/11/20 02:34:30;;;;;;;;;;;;;;;29.06;63.80;101186.81;5082370;27;70439;-35
2023/11/20 02:37:01;;;;;;;;;;;;;;;29.09;64.25;101189.97;5099955;27;66916;-35
2023/11/20 02:39:30;;;;;;;;;;;;;;;29.12;63.68;101180.63;5100576;27;69755;-34
2023/11/20 02:42:00;;;;;;;;;;;;;;;29.15;64.11;101185.63;5081018;27;65987;-35
2023/11/20 02:44:30;;;;;;;;;;;;;;;29.18;63.69;101180.66;5099897;27;69743;-34
2023/11/20 02:47:00;;;;;;;;;;;;;;;29.20;63.68;101182.31;5102303;27;66688;-34
2023/11/20 02:49:30;;;;;;;;;;;;;;;29.25;64.21;101175.25;5097055;27;68706;-35
2023/11/20 02:51:59;;;;;;;;;;;;;;;29.24;64.20;101173.59;5102052;27;65800;-35
2023/11/20 02:54:29;;;;;;;;;;;;;;;29.28;64.02;101166.78;5097293;27;69960;-34
2023/11/20 02:56:59;;;;;;;;;;;;;;;29.31;63.79;101169.06;5078614;27;65439;-34
2023/11/20 02:59:29;;;;;;;;;;;;;;;29.34;64.28;101165.13;5090339;27;69488;-35
2023/11/20 03:01:58;;;;;;;;;;;;;;;29.35;63.69;101159.50;5100994;27;66240;-35
2023/11/20 03:04:28;;;;;;;;;;;;;;;29.38;63.88;101160.97;5098090;27;69166;-35
2023/11/20 03:06:58;;;;;;;;;;;;;;;29.39;64.24;101158.09;5100317;27;66070;-36
2023/11/20 03:09:28;;;;;;;;;;;;;;;29.40;63.86;101158.91;5100414;27;70089;-34
2023/11/20 03:11:57;;;;;;;;;;;;;;;29.42;64.26;101153.28;5096086;27;65408;-35
2023/11/20 03:14:27;;;;;;;;;;;;;;;29.45;63.87;101150.16;5069888;27;70012;-34
2023/11/20 03:16:58;;;;;;;;;;;;;;;29.47;64.13;101129.19;5099806;27;65366;-34
2023/11/20 03:19:29;;;;;;;;;;;;;;;29.47;64.30;101121.91;5097643;27;69988;-34
2023/11/20 03:21:58;;;;;;;;;;;;;;;29.50;64.42;101116.09;5098787;27;66040;-35
2023/11/20 03:24:28;;;;;;;;;;;;;;;29.52;64.06;101105.09;5079234;27;70661;-36
2023/11/20 03:26:58;;;;;;;;;;;;;;;29.54;63.84;101103.00;5095243;27;66970;-34
2023/11/20 03:29:27;;;;;;;;;;;;;;;29.55;64.23;101107.38;5064742;27;72068;-35
2023/11/20 03:31:57;;;;;;;;;;;;;;;29.58;64.52;101096.13;5082970;27;66278;-39
2023/11/20 03:34:27;;;;;;;;;;;;;;;29.61;63.86;101101.13;5100316;27;70808;-37
2023/11/20 03:36:56;;;;;;;;;;;;;;;29.61;63.80;101090.31;5102031;27;66866;-38
2023/11/20 03:39:27;;;;;;;;;;;;;;;29.62;63.94;101097.41;5101685;27;69703;-37
2023/11/20 12:30:03;;;;;;;;;;;;;;;30.93;71.12;100955.78;5007371;28;67676;-37
2023/11/20 12:32:34;;;;;;;;;;;;;;;30.93;70.82;100961.19;5013209;28;69824;-37
2023/11/20 12:35:05;;;;;;;;;;;;;;;30.93;70.81;100961.19;5016654;28;66680;-37
2023/11/20 12:37:35;;;;;;;;;;;;;;;30.92;70.92;100967.63;5000272;28;69849;-37
2023/11/20 12:40:11;;;;;;;;;;;;;;;30.93;70.75;100972.03;5018947;28;66960;-36
2023/11/20 12:42:42;;;;;;;;;;;;;;;30.92;70.65;100975.75;5033503;28;69996;-37
2023/11/20 12:45:12;;;;;;;;;;;;;;;30.93;71.37;100982.88;5020874;28;66413;-37
2023/11/20 12:47:43;;;;;;;;;;;;;;;30.93;71.49;100982.88;5034003;28;70320;-37
2023/11/20 12:50:15;;;;;;;;;;;;;;;30.95;71.77;100980.75;5020305;28;66624;-36
2023/11/20 12:52:47;;;;;;;;;;;;;;;30.96;71.88;100981.59;5019079;28;70127;-37
2023/11/20 12:55:18;;;;;;;;;;;;;;;30.96;71.51;100993.25;5019904;28;66198;-37
2023/11/20 12:57:53;;;;;;;;;;;;;;;30.97;71.90;100994.91;5018101;28;69971;-37
2023/11/20 13:00:23;;;;;;;;;;;;;;;31.00;72.05;100997.19;5017049;28;66174;-37
2023/11/20 13:03:05;;;;;;;;;;;;;;;31.01;72.09;101004.28;5019168;28;70533;-36
2023/11/20 13:05:35;;;;;;;;;;;;;;;31.01;72.22;101006.97;5013318;28;66845;-38
2023/11/20 13:08:05;;;;;;;;;;;;;;;31.03;72.34;101010.28;5019396;28;71248;-37
2023/11/20 13:10:35;;;;;;;;;;;;;;;31.03;72.42;101021.13;5019987;28;66510;-42
2023/11/20 13:13:05;;;;;;;;;;;;;;;31.03;72.36;101025.72;5019488;28;70429;-36
2023/11/20 13:15:35;;;;;;;;;;;;;;;31.02;72.13;101030.31;5030577;28;65662;-37
2023/11/20 13:18:06;;;;;;;;;;;;;;;31.00;72.38;101037.81;5022169;28;71107;-38
2023/11/20 13:20:54;;;;;;;;;;;;;;;31.03;72.51;101042.78;5040598;28;65791;-36
2023/11/20 13:23:24;;;;;;;;;;;;;;;31.02;72.47;101051.97;5040413;28;70072;-38
2023/11/20 13:26:05;;;;;;;;;;;;;;;31.04;72.38;101054.50;5038809;28;66847;-38
2023/11/20 13:28:35;;;;;;;;;;;;;;;31.05;72.38;101051.53;5038341;28;70240;-37
2023/11/20 13:31:06;;;;;;;;;;;;;;;31.04;72.69;101055.31;5038228;28;66038;-38
2023/11/20 13:33:41;;;;;;;;;;;;;;;30.93;70.92;101050.59;5037795;28;70623;-38
2023/11/20 13:36:11;;;;;;;;;;;;;;;30.72;68.19;101052.50;5041076;28;66081;-36
2023/11/20 13:38:40;;;;;;;;;;;;;;;30.60;66.51;101059.66;5039402;28;70331;-37
2023/11/20 13:41:10;;;;;;;;;;;;;;;30.44;64.77;101060.13;5039446;28;66334;-37
2023/11/20 13:43:40;;;;;;;;;;;;;;;30.34;63.16;101059.72;5054970;28;70662;-36
2023/11/20 13:46:11;;;;;;;;;;;;;;;30.22;61.41;101062.25;5040250;28;66775;-36
2023/11/20 13:48:41;;;;;;;;;;;;;;;30.16;60.57;101065.78;5036846;28;71107;-37
2023/11/20 13:51:11;;;;;;;;;;;;;;;30.04;59.36;101061.03;5037962;28;66043;-38
2023/11/20 13:53:42;;;;;;;;;;;;;;;29.96;57.92;101073.94;5038979;28;71033;-37
2023/11/20 13:56:13;;;;;;;;;;;;;;;29.91;57.49;101076.44;5037002;28;67003;-37
2023/11/20 13:58:43;;;;;;;;;;;;;;;29.82;56.83;101075.81;5036761;28;70537;-37
2023/11/20 14:01:17;;;;;;;;;;;;;;;29.78;55.55;101075.41;5036182;28;66344;-36
2023/11/20 14:03:47;;;;;;;;;;;;;;;29.71;54.87;101071.84;5028845;28;69509;-37
2023/11/20 14:06:17;;;;;;;;;;;;;;;29.66;54.28;101079.75;5037998;28;66049;-36
2023/11/20 14:08:48;;;;;;;;;;;;;;;29.63;54.32;101082.88;5026214;28;69194;-36
2023/11/20 14:11:18;;;;;;;;;;;;;;;29.56;53.72;101082.00;5007173;28;67080;-38
2023/11/20 14:13:50;;;;;;;;;;;;;;;29.53;53.64;101080.56;5021532;28;69266;-38
2023/11/20 14:16:21;;;;;;;;;;;;;;;29.46;53.45;101084.28;5043608;28;67034;-39
2023/11/20 14:18:51;;;;;;;;;;;;;;;29.43;52.96;101092.81;5035180;28;70179;-37
2023/11/20 14:21:21;;;;;;;;;;;;;;;29.36;52.71;101084.66;5033451;28;66634;-37
2023/11/20 14:23:51;;;;;;;;;;;;;;;29.29;51.96;101090.06;5033258;28;69981;-36
2023/11/20 14:26:20;;;;;;;;;;;;;;;29.25;51.97;101083.41;5036671;28;66128;-36
2023/11/20 14:29:02;;;;;;;;;;;;;;;29.23;53.25;101085.50;5038359;28;69743;-36
2023/11/20 14:31:32;;;;;;;;;;;;;;;29.15;52.52;101082.97;5038961;28;66263;-39
2023/11/20 14:34:03;;;;;;;;;;;;;;;29.17;53.98;101086.31;5039974;28;69660;-38
2023/11/20 14:36:33;;;;;;;;;;;;;;;29.15;53.52;101077.56;5021871;28;65982;-40
2023/11/20 14:39:03;;;;;;;;;;;;;;;29.16;53.24;101084.63;5041132;28;70720;-37
2023/11/20 14:41:33;;;;;;;;;;;;;;;29.16;52.99;101081.94;5022482;28;66608;-37
2023/11/20 14:44:03;;;;;;;;;;;;;;;29.11;52.58;101079.88;5022462;28;69993;-39
2023/11/20 14:46:32;;;;;;;;;;;;;;;29.04;51.85;101087.09;5040633;28;65450;-38
2023/11/20 14:49:02;;;;;;;;;;;;;;;29.00;51.26;101091.19;5041324;28;70647;-38
2023/11/20 14:51:32;;;;;;;;;;;;;;;28.99;50.76;101088.72;5036369;28;65948;-37
2023/11/20 14:54:03;;;;;;;;;;;;;;;28.92;50.39;101084.13;5034533;28;70736;-38
2023/11/20 14:56:35;;;;;;;;;;;;;;;28.94;50.42;101086.59;5041087;28;66065;-39
2023/11/20 14:59:08;;;;;;;;;;;;;;;28.88;49.91;101087.41;5038910;28;70342;-39
2023/11/20 15:01:38;;;;;;;;;;;;;;;28.83;49.69;101079.91;5040007;28;67080;-38
2023/11/20 15:04:08;;;;;;;;;;;;;;;28.81;49.14;101084.72;5040010;28;70507;-37
2023/11/20 15:06:38;;;;;;;;;;;;;;;28.77;49.23;101079.91;5037979;28;65898;-37
2023/11/20 15:09:09;;;;;;;;;;;;;;;28.74;48.89;101086.53;5040631;28;69675;-37
2023/11/20 15:11:39;;;;;;;;;;;;;;;28.92;48.87;101086.00;5040057;28;67693;-37
2023/11/20 15:14:08;;;;;;;;;;;;;;;29.00;48.36;101090.38;5037936;28;70307;-37
2023/11/20 15:16:38;;;;;;;;;;;;;;;29.00;47.87;101090.38;5040160;28;66912;-37
2023/11/20 15:19:08;;;;;;;;;;;;;;;29.04;48.27;101086.28;5036791;28;70492;-36
2023/11/20 15:21:38;;;;;;;;;;;;;;;29.03;47.70;101080.03;5038268;28;66029;-37
2023/11/20 15:24:07;;;;;;;;;;;;;;;29.04;48.15;101080.88;5040785;28;69941;-38
2023/11/20 15:26:37;;;;;;;;;;;;;;;29.01;47.39;101076.66;5037936;28;66602;-38
2023/11/20 15:29:07;;;;;;;;;;;;;;;28.99;47.35;101075.22;5023943;28;70446;-36
2023/11/20 15:31:36;;;;;;;;;;;;;;;28.97;46.93;101080.81;5034156;28;66716;-37
2023/11/20 15:34:10;;;;;;;;;;;;;;;28.96;47.41;101061.06;5041389;28;70634;-38
2023/11/20 15:36:40;;;;;;;;;;;;;;;28.93;47.18;101066.88;5052711;28;65299;-37
2023/11/20 15:39:11;;;;;;;;;;;;;;;28.87;46.11;101065.00;5032164;28;70088;-36
2023/11/20 15:41:40;;;;;;;;;;;;;;;28.85;46.49;101061.66;5037545;28;66864;-37
2023/11/20 15:44:10;;;;;;;;;;;;;;;28.86;46.50;101052.53;5037997;28;70644;-40
2023/11/20 15:46:40;;;;;;;;;;;;;;;28.83;46.31;101057.50;5040293;28;67225;-38
2023/11/20 15:49:11;;;;;;;;;;;;;;;28.79;46.12;101051.66;5039986;28;70705;-38
2023/11/20 15:51:41;;;;;;;;;;;;;;;28.74;46.12;101048.75;5038606;28;65056;-37
2023/11/20 15:54:19;;;;;;;;;;;;;;;28.73;45.90;101052.47;5039161;28;70843;-38
2023/11/20 15:56:49;;;;;;;;;;;;;;;28.73;46.36;101052.47;5037118;28;65086;-36
2023/11/20 15:59:20;;;;;;;;;;;;;;;28.69;45.79;101043.09;5038219;28;70361;-39
2023/11/20 16:01:51;;;;;;;;;;;;;;;28.65;45.87;101047.25;5038866;28;66427;-37
2023/11/20 16:04:21;;;;;;;;;;;;;;;28.64;45.93;101049.13;5037117;28;70735;-37
2023/11/20 16:06:52;;;;;;;;;;;;;;;28.61;45.73;101049.53;5021857;28;66171;-39
2023/11/20 16:09:22;;;;;;;;;;;;;;;28.59;45.67;101051.59;5039987;28;71360;-39
2023/11/20 16:11:52;;;;;;;;;;;;;;;28.58;45.17;101049.09;5037673;28;66830;-38
2023/11/20 16:14:23;;;;;;;;;;;;;;;28.52;45.44;101046.16;5039831;28;69854;-39
2023/11/20 16:16:53;;;;;;;;;;;;;;;28.48;44.80;101044.91;5040804;28;65339;-38
2023/11/20 16:19:23;;;;;;;;;;;;;;;28.48;45.21;101049.47;5039083;28;69199;-36
2023/11/20 16:21:54;;;;;;;;;;;;;;;28.42;45.15;101034.91;5040875;28;66073;-36
2023/11/20 16:24:24;;;;;;;;;;;;;;;28.41;45.30;101049.38;5040983;28;70357;-39
2023/11/20 16:26:54;;;;;;;;;;;;;;;28.40;44.88;101036.94;5038059;28;66843;-38
2023/11/20 16:29:24;;;;;;;;;;;;;;;28.34;45.29;101048.53;5040149;28;70342;-38
2023/11/20 16:31:56;;;;;;;;;;;;;;;28.36;44.91;101041.06;5040519;28;65217;-38
2023/11/20 16:34:26;;;;;;;;;;;;;;;28.31;45.35;101046.22;5021175;28;69913;-36
2023/11/20 16:36:56;;;;;;;;;;;;;;;28.33;45.61;101041.44;5039825;28;67068;-42
2023/11/20 16:39:26;;;;;;;;;;;;;;;28.32;45.45;101034.41;5040449;28;69835;-37
2023/11/20 16:41:56;;;;;;;;;;;;;;;28.30;45.21;101033.75;5037823;28;66929;-38
2023/11/20 16:44:26;;;;;;;;;;;;;;;28.31;45.36;101038.16;5040782;28;70379;-37
2023/11/20 16:46:56;;;;;;;;;;;;;;;28.28;45.69;101027.75;5039716;28;66246;-36
2023/11/20 16:49:26;;;;;;;;;;;;;;;28.27;45.68;101026.06;5038233;28;69812;-36
2023/11/20 16:51:57;;;;;;;;;;;;;;;28.27;45.15;101031.47;5042596;28;66449;-37
2023/11/20 16:54:29;;;;;;;;;;;;;;;28.25;45.11;101028.13;5040352;28;69800;-36
2023/11/20 16:56:59;;;;;;;;;;;;;;;28.22;45.62;101028.53;5039671;28;67052;-37
2023/11/20 16:59:34;;;;;;;;;;;;;;;28.21;45.30;101024.16;5039495;28;69722;-36
2023/11/20 17:02:04;;;;;;;;;;;;;;;28.19;45.38;101018.13;5039728;28;65557;-38
2023/11/20 17:04:34;;;;;;;;;;;;;;;28.18;45.67;101024.56;5039606;28;70510;-37
2023/11/20 17:07:04;;;;;;;;;;;;;;;28.17;45.18;101017.53;5021691;28;66154;-36
2023/11/20 17:09:34;;;;;;;;;;;;;;;28.14;45.39;101015.19;5039700;28;69101;-37
2023/11/20 17:12:05;;;;;;;;;;;;;;;28.16;45.21;101018.53;5038712;28;65981;-36
2023/11/20 17:14:34;;;;;;;;;;;;;;;28.13;45.06;101013.53;5039339;28;70751;-37
2023/11/20 17:17:05;;;;;;;;;;;;;;;28.10;45.13;101013.94;5008475;28;66503;-36
2023/11/20 17:19:35;;;;;;;;;;;;;;;28.11;45.24;101010.19;5039234;28;69763;-37
2023/11/20 17:22:05;;;;;;;;;;;;;;;28.06;45.43;101002.72;5040797;28;65756;-38
2023/11/20 17:24:36;;;;;;;;;;;;;;;28.05;45.14;101001.91;5035546;28;70503;-37
2023/11/20 17:27:06;;;;;;;;;;;;;;;28.06;45.13;101000.84;5039960;28;66919;-38
2023/11/20 17:29:36;;;;;;;;;;;;;;;28.03;45.46;101001.25;5039745;28;69252;-38
2023/11/20 17:32:07;;;;;;;;;;;;;;;27.83;45.38;100965.22;5038524;28;66201;-37
2023/11/20 17:34:37;;;;;;;;;;;;;;;27.99;45.24;100991.88;5039364;28;69949;-39
2023/11/20 17:37:07;;;;;;;;;;;;;;;27.99;45.11;100985.66;5040300;28;66436;-37
2023/11/20 17:39:40;;;;;;;;;;;;;;;27.97;45.31;100983.19;5037452;28;70261;-38
2023/11/20 17:42:10;;;;;;;;;;;;;;;27.96;45.35;100976.09;5040187;28;66730;-37
2023/11/20 17:44:41;;;;;;;;;;;;;;;27.95;45.32;100979.84;5054168;28;69701;-37
2023/11/20 17:47:11;;;;;;;;;;;;;;;27.94;44.74;100978.16;5019782;28;66221;-37
2023/11/20 17:49:41;;;;;;;;;;;;;;;27.93;44.90;100971.13;5038732;28;70574;-36
2023/11/20 17:52:10;;;;;;;;;;;;;;;27.91;45.07;100962.38;5039669;28;66047;-37
2023/11/20 17:54:40;;;;;;;;;;;;;;;27.89;45.26;100967.16;5037635;28;70597;-36
2023/11/20 17:57:10;;;;;;;;;;;;;;;27.87;45.17;100950.34;5039340;28;67039;-36
2023/11/20 17:59:39;;;;;;;;;;;;;;;27.87;44.69;100947.66;5042788;28;69946;-37
2023/11/20 18:02:10;;;;;;;;;;;;;;;27.84;44.92;100943.47;5041441;28;65769;-37
2023/11/20 18:04:41;;;;;;;;;;;;;;;27.84;45.04;100937.25;5041513;28;70680;-36
2023/11/20 18:07:11;;;;;;;;;;;;;;;27.83;45.07;100932.88;5043266;28;66102;-36
2023/11/20 18:09:41;;;;;;;;;;;;;;;27.81;45.30;100932.28;5039258;28;70147;-37
2023/11/20 18:12:11;;;;;;;;;;;;;;;27.80;45.02;100923.34;5043357;28;66139;-36
2023/11/20 18:14:40;;;;;;;;;;;;;;;27.82;44.97;100920.44;5057390;28;69339;-37
2023/11/20 18:17:10;;;;;;;;;;;;;;;27.80;45.20;100922.50;5023833;28;66453;-36
2023/11/20 18:19:40;;;;;;;;;;;;;;;27.76;45.27;100915.81;5025054;28;70600;-37
2023/11/20 18:22:10;;;;;;;;;;;;;;;27.78;45.30;100901.13;5043059;28;66672;-37
2023/11/20 18:24:40;;;;;;;;;;;;;;;27.74;45.00;100897.13;5038070;28;70368;-37
2023/11/20 18:27:10;;;;;;;;;;;;;;;27.74;45.24;100899.00;5047190;28;66370;-37
2023/11/20 18:29:40;;;;;;;;;;;;;;;27.74;45.04;100896.31;5017416;28;70268;-38
2023/11/20 18:32:09;;;;;;;;;;;;;;;27.71;45.24;100902.09;5038622;28;66606;-37
2023/11/20 18:34:40;;;;;;;;;;;;;;;27.72;45.20;100892.97;5040957;28;69276;-37
2023/11/20 18:37:10;;;;;;;;;;;;;;;27.71;45.12;100896.72;5041605;28;66101;-37
2023/11/20 18:39:44;;;;;;;;;;;;;;;27.71;45.02;100896.72;5041909;28;63683;-36
2023/11/20 18:42:14;;;;;;;;;;;;;;;27.67;45.29;100890.06;5024252;28;65370;-37
2023/11/20 18:44:44;;;;;;;;;;;;;;;27.67;45.01;100890.06;5041880;28;70300;-40
2023/11/20 18:47:14;;;;;;;;;;;;;;;27.68;44.89;100892.56;5023720;28;65940;-37
2023/11/20 18:49:45;;;;;;;;;;;;;;;27.63;45.12;100890.44;5040936;28;70599;-35
2023/11/20 18:52:15;;;;;;;;;;;;;;;27.48;45.04;100860.09;5042013;28;66359;-36
2023/11/20 18:54:46;;;;;;;;;;;;;;;27.63;44.69;100884.22;5023835;28;69711;-37
2023/11/20 18:57:17;;;;;;;;;;;;;;;27.62;45.24;100878.00;5041812;28;65525;-36
2023/11/20 18:59:47;;;;;;;;;;;;;;;27.63;45.08;100871.56;5031283;28;70445;-36
2023/11/20 19:02:16;;;;;;;;;;;;;;;27.58;45.05;100874.06;5056574;28;66047;-37
2023/11/20 19:04:46;;;;;;;;;;;;;;;27.59;44.90;100867.63;5041841;28;69216;-36
2023/11/20 19:07:16;;;;;;;;;;;;;;;27.55;44.77;100861.00;5040805;28;67237;-36
2023/11/20 19:09:46;;;;;;;;;;;;;;;27.59;45.08;100867.63;5041259;28;70295;-37
2023/11/20 19:12:15;;;;;;;;;;;;;;;27.55;44.73;100865.53;5042145;28;65459;-38
2023/11/20 19:14:45;;;;;;;;;;;;;;;27.57;44.78;100863.47;5040947;28;70341;-37
2023/11/20 19:17:14;;;;;;;;;;;;;;;27.55;44.76;100866.38;5040370;28;66934;-37
2023/11/20 19:19:44;;;;;;;;;;;;;;;27.56;44.69;100859.94;5042159;28;69069;-37
2023/11/20 19:22:14;;;;;;;;;;;;;;;27.36;44.74;100823.97;5041302;28;65757;-37
2023/11/20 19:24:44;;;;;;;;;;;;;;;27.52;45.09;100855.97;5040574;28;69753;-37
2023/11/20 19:27:13;;;;;;;;;;;;;;;27.50;44.97;100858.06;5041032;28;65981;-37
2023/11/20 19:29:43;;;;;;;;;;;;;;;27.49;44.93;100856.38;5040524;28;70652;-36
2023/11/20 19:32:13;;;;;;;;;;;;;;;27.48;44.62;100845.81;5041220;28;66590;-37
2023/11/20 19:34:43;;;;;;;;;;;;;;;27.48;44.73;100843.13;5041076;28;70591;-36
2023/11/20 19:37:13;;;;;;;;;;;;;;;27.46;45.01;100845.16;5040610;28;66114;-37
2023/11/20 19:39:43;;;;;;;;;;;;;;;27.46;44.76;100843.28;5039786;28;69752;-37
2023/11/20 19:42:12;;;;;;;;;;;;;;;27.47;45.13;100836.03;5040532;28;66404;-37
2023/11/20 19:44:42;;;;;;;;;;;;;;;27.45;44.93;100849.72;5040531;28;70187;-36
2023/11/20 19:47:12;;;;;;;;;;;;;;;27.44;44.82;100837.25;5041058;28;65775;-37
2023/11/20 19:49:42;;;;;;;;;;;;;;;27.45;45.04;100844.34;5041230;28;70343;-38
2023/11/20 19:52:11;;;;;;;;;;;;;;;27.47;44.77;100847.69;5040063;28;66473;-36
2023/11/20 19:54:41;;;;;;;;;;;;;;;27.46;45.21;100840.59;5039853;28;70816;-37
2023/11/20 19:57:10;;;;;;;;;;;;;;;27.43;45.20;100834.78;5023000;28;66483;-36
2023/11/20 19:59:40;;;;;;;;;;;;;;;27.44;44.81;100831.88;5039251;28;70722;-37
2023/11/20 20:02:10;;;;;;;;;;;;;;;27.47;45.24;100836.03;5040444;28;66702;-37
2023/11/20 20:04:39;;;;;;;;;;;;;;;27.43;44.82;100830.22;5039588;28;69226;-38
2023/11/20 20:07:09;;;;;;;;;;;;;;;27.42;45.01;100828.56;5039170;28;66144;-37
2023/11/20 20:09:39;;;;;;;;;;;;;;;27.40;45.36;100831.44;5039466;28;69578;-36
2023/11/20 20:12:10;;;;;;;;;;;;;;;27.41;45.20;100829.59;5039439;28;65409;-35
2023/11/20 20:14:43;;;;;;;;;;;;;;;27.41;45.10;100829.59;5039451;28;69941;-36
2023/11/20 20:17:13;;;;;;;;;;;;;;;27.37;45.08;100828.34;5039380;28;66885;-36
2023/11/20 20:19:47;;;;;;;;;;;;;;;27.36;45.32;100826.69;5040623;28;70359;-36
2023/11/20 20:22:19;;;;;;;;;;;;;;;27.36;45.61;100823.97;5037051;28;66236;-36
2023/11/20 20:24:49;;;;;;;;;;;;;;;27.39;45.71;100823.59;5039546;28;71165;-36
2023/11/20 20:27:19;;;;;;;;;;;;;;;27.34;45.19;100816.09;5038520;28;66853;-36
2023/11/20 20:29:48;;;;;;;;;;;;;;;27.36;45.21;100823.97;5037414;28;70543;-37
2023/11/20 20:32:18;;;;;;;;;;;;;;;27.37;45.32;100822.94;5040173;28;66479;-37
2023/11/20 20:34:49;;;;;;;;;;;;;;;27.38;45.35;100813.81;5038667;28;69797;-36
2023/11/20 20:37:19;;;;;;;;;;;;;;;27.33;45.03;100819.81;5019162;28;67072;-37
2023/11/20 20:39:48;;;;;;;;;;;;;;;27.34;45.50;100820.66;5032097;28;69433;-37
2023/11/20 20:42:18;;;;;;;;;;;;;;;27.34;45.15;100824.16;5040175;28;66977;-37
2023/11/20 20:44:50;;;;;;;;;;;;;;;27.32;45.08;100817.31;5038480;28;70646;-38
2023/11/20 20:47:20;;;;;;;;;;;;;;;27.30;45.26;100820.22;5041020;28;66175;-37
2023/11/20 20:49:50;;;;;;;;;;;;;;;27.31;45.44;100821.88;5022444;28;69242;-37
2023/11/20 20:52:19;;;;;;;;;;;;;;;27.30;44.97;100822.06;5039439;28;65718;-37
2023/11/20 20:54:49;;;;;;;;;;;;;;;27.28;45.12;100821.44;5040119;28;69763;-36
2023/11/20 20:57:21;;;;;;;;;;;;;;;27.29;45.11;100823.09;5040194;28;66934;-36
2023/11/20 20:59:51;;;;;;;;;;;;;;;27.28;45.31;100832.22;5035473;28;70360;-36
2023/11/20 21:02:20;;;;;;;;;;;;;;;27.28;45.52;100835.75;5039109;28;65663;-37
2023/11/20 21:04:50;;;;;;;;;;;;;;;27.26;44.98;100836.97;5039530;28;71015;-36
2023/11/20 21:07:22;;;;;;;;;;;;;;;27.26;45.10;100843.16;5038742;28;66486;-37
2023/11/20 21:09:52;;;;;;;;;;;;;;;27.25;45.17;100838.00;5039352;28;69925;-36
2023/11/20 21:12:21;;;;;;;;;;;;;;;27.22;44.90;100843.75;5040343;28;66103;-36
2023/11/20 21:14:51;;;;;;;;;;;;;;;27.21;45.13;100842.09;5038313;28;69154;-36
2023/11/20 21:17:21;;;;;;;;;;;;;;;27.18;45.16;100844.16;5039804;28;66085;-37
2023/11/20 21:19:50;;;;;;;;;;;;;;;27.21;44.67;100842.09;5038431;28;69762;-37
2023/11/20 21:22:20;;;;;;;;;;;;;;;27.20;44.92;100845.84;5038778;28;67158;-37
2023/11/20 21:24:49;;;;;;;;;;;;;;;27.21;44.59;100847.47;5038931;28;70057;-37
2023/11/20 21:27:19;;;;;;;;;;;;;;;27.18;44.52;100854.91;5039736;28;66017;-37
2023/11/20 21:29:49;;;;;;;;;;;;;;;27.18;44.55;100857.63;5038122;28;69336;-37
2023/11/20 21:32:18;;;;;;;;;;;;;;;27.16;44.71;100854.31;5039409;28;66271;-37
2023/11/20 21:34:48;;;;;;;;;;;;;;;27.17;44.36;100858.66;5021873;28;70938;-36
2023/11/20 21:37:30;;;;;;;;;;;;;;;27.14;44.68;100864.41;5038944;28;66120;-37
2023/11/20 21:40:02;;;;;;;;;;;;;;;27.13;44.39;100862.72;5038456;28;70140;-37